sensor_id;sensor_type;location;lat;lon;timestamp;P1;durP1;ratioP1;P2;durP2;ratioP2
59476;SDS011;73078;49.762;6.594;2024-03-07T00:01:36;13.15;;;8.57;;
59476;SDS011;73078;49.762;6.594;2024-03-07T00:04:02;13.70;;;7.78;;
59476;SDS011;73078;49.762;6.594;2024-03-07T00:06:28;15.52;;;8.88;;
59476;SDS011;73078;49.762;6.594;2024-03-07T00:08:54;14.77;;;8.55;;
59476;SDS011;73078;49.762;6.594;2024-03-07T00:11:20;15.60;;;8.43;;
59476;SDS011;73078;49.762;6.594;2024-03-07T00:13:46;16.70;;;8.98;;
59476;SDS011;73078;49.762;6.594;2024-03-07T00:16:12;13.30;;;8.55;;
59476;SDS011;73078;49.762;6.594;2024-03-07T00:18:38;16.50;;;8.82;;
59476;SDS011;73078;49.762;6.594;2024-03-07T00:21:04;17.10;;;8.90;;
59476;SDS011;73078;49.762;6.594;2024-03-07T00:23:30;15.82;;;9.82;;
59476;SDS011;73078;49.762;6.594;2024-03-07T00:25:57;16.85;;;9.50;;
59476;SDS011;73078;49.762;6.594;2024-03-07T00:28:22;18.70;;;10.10;;
59476;SDS011;73078;49.762;6.594;2024-03-07T00:30:48;19.17;;;10.40;;
59476;SDS011;73078;49.762;6.594;2024-03-07T00:33:15;17.17;;;10.25;;
59476;SDS011;73078;49.762;6.594;2024-03-07T00:35:41;16.17;;;10.05;;
59476;SDS011;73078;49.762;6.594;2024-03-07T00:38:09;22.60;;;11.80;;
59476;SDS011;73078;49.762;6.594;2024-03-07T00:40:35;21.55;;;10.68;;
59476;SDS011;73078;49.762;6.594;2024-03-07T00:43:01;20.83;;;10.63;;
59476;SDS011;73078;49.762;6.594;2024-03-07T00:45:27;15.88;;;9.90;;
59476;SDS011;73078;49.762;6.594;2024-03-07T00:47:53;17.77;;;10.48;;
59476;SDS011;73078;49.762;6.594;2024-03-07T00:50:19;21.92;;;11.20;;
59476;SDS011;73078;49.762;6.594;2024-03-07T00:52:46;19.88;;;10.70;;
59476;SDS011;73078;49.762;6.594;2024-03-07T00:55:13;17.83;;;10.43;;
59476;SDS011;73078;49.762;6.594;2024-03-07T00:57:39;18.83;;;10.40;;
59476;SDS011;73078;49.762;6.594;2024-03-07T01:00:06;17.67;;;10.30;;
59476;SDS011;73078;49.762;6.594;2024-03-07T01:02:39;18.15;;;10.88;;
59476;SDS011;73078;49.762;6.594;2024-03-07T01:05:08;19.92;;;10.68;;
59476;SDS011;73078;49.762;6.594;2024-03-07T01:07:34;20.15;;;10.57;;
59476;SDS011;73078;49.762;6.594;2024-03-07T01:10:02;18.25;;;10.85;;
59476;SDS011;73078;49.762;6.594;2024-03-07T01:12:31;20.73;;;11.45;;
59476;SDS011;73078;49.762;6.594;2024-03-07T01:14:59;18.63;;;10.82;;
59476;SDS011;73078;49.762;6.594;2024-03-07T01:17:25;21.83;;;11.13;;
59476;SDS011;73078;49.762;6.594;2024-03-07T01:19:51;21.05;;;11.73;;
59476;SDS011;73078;49.762;6.594;2024-03-07T01:22:17;21.15;;;12.05;;
59476;SDS011;73078;49.762;6.594;2024-03-07T01:24:44;21.55;;;11.55;;
59476;SDS011;73078;49.762;6.594;2024-03-07T01:27:10;19.58;;;11.70;;
59476;SDS011;73078;49.762;6.594;2024-03-07T01:29:35;22.17;;;12.25;;
59476;SDS011;73078;49.762;6.594;2024-03-07T01:32:01;24.95;;;13.40;;
59476;SDS011;73078;49.762;6.594;2024-03-07T01:34:28;24.45;;;12.85;;
59476;SDS011;73078;49.762;6.594;2024-03-07T01:36:54;25.50;;;13.35;;
59476;SDS011;73078;49.762;6.594;2024-03-07T01:39:20;26.05;;;14.32;;
59476;SDS011;73078;49.762;6.594;2024-03-07T01:41:46;26.23;;;13.27;;
59476;SDS011;73078;49.762;6.594;2024-03-07T01:44:13;30.67;;;13.35;;
59476;SDS011;73078;49.762;6.594;2024-03-07T01:46:39;26.40;;;13.55;;
59476;SDS011;73078;49.762;6.594;2024-03-07T01:49:06;27.70;;;14.23;;
59476;SDS011;73078;49.762;6.594;2024-03-07T01:51:33;29.60;;;14.73;;
59476;SDS011;73078;49.762;6.594;2024-03-07T01:53:59;30.40;;;14.15;;
59476;SDS011;73078;49.762;6.594;2024-03-07T01:56:26;29.98;;;14.52;;
59476;SDS011;73078;49.762;6.594;2024-03-07T01:58:52;27.13;;;14.15;;
59476;SDS011;73078;49.762;6.594;2024-03-07T02:01:19;30.15;;;14.82;;
59476;SDS011;73078;49.762;6.594;2024-03-07T02:03:45;27.52;;;14.82;;
59476;SDS011;73078;49.762;6.594;2024-03-07T02:06:11;28.52;;;15.00;;
59476;SDS011;73078;49.762;6.594;2024-03-07T02:08:37;28.63;;;14.50;;
59476;SDS011;73078;49.762;6.594;2024-03-07T02:11:04;33.60;;;15.23;;
59476;SDS011;73078;49.762;6.594;2024-03-07T02:13:30;28.42;;;15.43;;
59476;SDS011;73078;49.762;6.594;2024-03-07T02:15:56;30.20;;;14.40;;
59476;SDS011;73078;49.762;6.594;2024-03-07T02:18:23;33.28;;;16.85;;
59476;SDS011;73078;49.762;6.594;2024-03-07T02:20:49;32.25;;;15.95;;
59476;SDS011;73078;49.762;6.594;2024-03-07T02:23:15;34.13;;;16.40;;
59476;SDS011;73078;49.762;6.594;2024-03-07T02:25:41;33.88;;;16.60;;
59476;SDS011;73078;49.762;6.594;2024-03-07T02:28:07;35.55;;;18.77;;
59476;SDS011;73078;49.762;6.594;2024-03-07T02:30:34;33.97;;;17.02;;
59476;SDS011;73078;49.762;6.594;2024-03-07T02:33:00;34.05;;;17.83;;
59476;SDS011;73078;49.762;6.594;2024-03-07T02:35:32;33.33;;;16.38;;
59476;SDS011;73078;49.762;6.594;2024-03-07T02:37:59;35.03;;;17.50;;
59476;SDS011;73078;49.762;6.594;2024-03-07T02:40:25;33.53;;;18.67;;
59476;SDS011;73078;49.762;6.594;2024-03-07T02:42:51;35.75;;;18.45;;
59476;SDS011;73078;49.762;6.594;2024-03-07T02:45:17;33.92;;;16.67;;
59476;SDS011;73078;49.762;6.594;2024-03-07T02:47:43;36.83;;;18.10;;
59476;SDS011;73078;49.762;6.594;2024-03-07T02:50:09;35.28;;;17.35;;
59476;SDS011;73078;49.762;6.594;2024-03-07T02:52:36;38.08;;;18.23;;
59476;SDS011;73078;49.762;6.594;2024-03-07T02:55:02;35.13;;;17.70;;
59476;SDS011;73078;49.762;6.594;2024-03-07T02:57:31;43.53;;;19.80;;
59476;SDS011;73078;49.762;6.594;2024-03-07T02:59:57;35.58;;;17.45;;
59476;SDS011;73078;49.762;6.594;2024-03-07T03:02:22;35.90;;;18.58;;
59476;SDS011;73078;49.762;6.594;2024-03-07T03:04:48;36.60;;;18.13;;
59476;SDS011;73078;49.762;6.594;2024-03-07T03:07:14;36.70;;;19.30;;
59476;SDS011;73078;49.762;6.594;2024-03-07T03:09:42;41.03;;;20.45;;
59476;SDS011;73078;49.762;6.594;2024-03-07T03:12:11;40.33;;;20.60;;
59476;SDS011;73078;49.762;6.594;2024-03-07T03:14:37;38.53;;;19.35;;
59476;SDS011;73078;49.762;6.594;2024-03-07T03:17:03;35.58;;;18.65;;
59476;SDS011;73078;49.762;6.594;2024-03-07T03:19:29;40.08;;;18.33;;
59476;SDS011;73078;49.762;6.594;2024-03-07T03:21:55;36.15;;;18.90;;
59476;SDS011;73078;49.762;6.594;2024-03-07T03:24:21;37.70;;;20.00;;
59476;SDS011;73078;49.762;6.594;2024-03-07T03:26:47;39.50;;;19.85;;
59476;SDS011;73078;49.762;6.594;2024-03-07T03:29:13;40.88;;;20.38;;
59476;SDS011;73078;49.762;6.594;2024-03-07T03:31:41;41.42;;;19.73;;
59476;SDS011;73078;49.762;6.594;2024-03-07T03:34:07;40.22;;;21.13;;
59476;SDS011;73078;49.762;6.594;2024-03-07T03:36:34;39.08;;;20.15;;
59476;SDS011;73078;49.762;6.594;2024-03-07T03:39:00;39.78;;;20.25;;
59476;SDS011;73078;49.762;6.594;2024-03-07T03:41:26;40.88;;;20.35;;
59476;SDS011;73078;49.762;6.594;2024-03-07T03:43:52;40.22;;;20.20;;
59476;SDS011;73078;49.762;6.594;2024-03-07T03:46:18;39.53;;;19.13;;
59476;SDS011;73078;49.762;6.594;2024-03-07T03:48:44;44.85;;;21.15;;
59476;SDS011;73078;49.762;6.594;2024-03-07T03:51:10;38.95;;;20.58;;
59476;SDS011;73078;49.762;6.594;2024-03-07T03:53:38;45.08;;;21.42;;
59476;SDS011;73078;49.762;6.594;2024-03-07T03:56:05;43.08;;;20.30;;
59476;SDS011;73078;49.762;6.594;2024-03-07T03:58:31;42.30;;;20.02;;
59476;SDS011;73078;49.762;6.594;2024-03-07T04:00:57;43.90;;;21.13;;
59476;SDS011;73078;49.762;6.594;2024-03-07T04:03:23;46.17;;;21.75;;
59476;SDS011;73078;49.762;6.594;2024-03-07T04:05:50;44.13;;;21.27;;
59476;SDS011;73078;49.762;6.594;2024-03-07T04:08:16;45.97;;;21.20;;
59476;SDS011;73078;49.762;6.594;2024-03-07T04:10:42;44.47;;;21.08;;
59476;SDS011;73078;49.762;6.594;2024-03-07T04:13:08;45.42;;;21.08;;
59476;SDS011;73078;49.762;6.594;2024-03-07T04:15:34;46.33;;;21.80;;
59476;SDS011;73078;49.762;6.594;2024-03-07T04:18:01;46.53;;;22.65;;
59476;SDS011;73078;49.762;6.594;2024-03-07T04:20:27;43.65;;;22.55;;
59476;SDS011;73078;49.762;6.594;2024-03-07T04:22:53;41.95;;;21.40;;
59476;SDS011;73078;49.762;6.594;2024-03-07T04:25:20;42.22;;;21.20;;
59476;SDS011;73078;49.762;6.594;2024-03-07T04:27:46;45.42;;;22.27;;
59476;SDS011;73078;49.762;6.594;2024-03-07T04:30:14;51.42;;;23.25;;
59476;SDS011;73078;49.762;6.594;2024-03-07T04:32:41;46.53;;;22.85;;
59476;SDS011;73078;49.762;6.594;2024-03-07T04:35:07;50.00;;;22.15;;
59476;SDS011;73078;49.762;6.594;2024-03-07T04:37:35;50.05;;;22.67;;
59476;SDS011;73078;49.762;6.594;2024-03-07T04:40:03;42.60;;;22.33;;
59476;SDS011;73078;49.762;6.594;2024-03-07T04:42:29;46.20;;;21.30;;
59476;SDS011;73078;49.762;6.594;2024-03-07T04:44:55;42.95;;;21.00;;
59476;SDS011;73078;49.762;6.594;2024-03-07T04:47:21;44.38;;;21.27;;
59476;SDS011;73078;49.762;6.594;2024-03-07T04:49:47;53.55;;;23.75;;
59476;SDS011;73078;49.762;6.594;2024-03-07T04:52:13;46.38;;;22.60;;
59476;SDS011;73078;49.762;6.594;2024-03-07T04:54:39;47.75;;;22.60;;
59476;SDS011;73078;49.762;6.594;2024-03-07T04:57:05;47.00;;;22.73;;
59476;SDS011;73078;49.762;6.594;2024-03-07T04:59:31;45.42;;;21.35;;
59476;SDS011;73078;49.762;6.594;2024-03-07T05:01:57;48.78;;;21.35;;
59476;SDS011;73078;49.762;6.594;2024-03-07T05:04:23;44.35;;;21.85;;
59476;SDS011;73078;49.762;6.594;2024-03-07T05:06:49;49.25;;;22.60;;
59476;SDS011;73078;49.762;6.594;2024-03-07T05:09:15;48.97;;;20.40;;
59476;SDS011;73078;49.762;6.594;2024-03-07T05:11:48;48.50;;;21.55;;
59476;SDS011;73078;49.762;6.594;2024-03-07T05:14:14;56.83;;;23.05;;
59476;SDS011;73078;49.762;6.594;2024-03-07T05:16:41;53.63;;;22.95;;
59476;SDS011;73078;49.762;6.594;2024-03-07T05:19:08;48.17;;;23.52;;
59476;SDS011;73078;49.762;6.594;2024-03-07T05:21:34;48.05;;;23.48;;
59476;SDS011;73078;49.762;6.594;2024-03-07T05:24:05;45.22;;;22.95;;
59476;SDS011;73078;49.762;6.594;2024-03-07T05:26:33;48.72;;;23.92;;
59476;SDS011;73078;49.762;6.594;2024-03-07T05:29:03;46.42;;;22.35;;
59476;SDS011;73078;49.762;6.594;2024-03-07T05:31:31;48.65;;;23.83;;
59476;SDS011;73078;49.762;6.594;2024-03-07T05:34:00;54.90;;;24.80;;
59476;SDS011;73078;49.762;6.594;2024-03-07T05:36:33;49.08;;;22.60;;
59476;SDS011;73078;49.762;6.594;2024-03-07T05:38:59;53.28;;;23.63;;
59476;SDS011;73078;49.762;6.594;2024-03-07T05:41:27;57.72;;;25.27;;
59476;SDS011;73078;49.762;6.594;2024-03-07T05:43:54;56.80;;;24.35;;
59476;SDS011;73078;49.762;6.594;2024-03-07T05:46:21;54.80;;;24.17;;
59476;SDS011;73078;49.762;6.594;2024-03-07T05:48:47;52.35;;;24.80;;
59476;SDS011;73078;49.762;6.594;2024-03-07T05:51:17;53.67;;;25.02;;
59476;SDS011;73078;49.762;6.594;2024-03-07T05:53:42;52.05;;;24.55;;
59476;SDS011;73078;49.762;6.594;2024-03-07T05:56:09;55.22;;;24.98;;
59476;SDS011;73078;49.762;6.594;2024-03-07T05:58:34;53.42;;;24.40;;
59476;SDS011;73078;49.762;6.594;2024-03-07T06:01:01;59.08;;;26.10;;
59476;SDS011;73078;49.762;6.594;2024-03-07T06:03:26;55.00;;;23.98;;
59476;SDS011;73078;49.762;6.594;2024-03-07T06:05:52;54.50;;;23.15;;
59476;SDS011;73078;49.762;6.594;2024-03-07T06:08:19;56.53;;;24.92;;
59476;SDS011;73078;49.762;6.594;2024-03-07T06:10:46;40.35;;;20.75;;
59476;SDS011;73078;49.762;6.594;2024-03-07T06:13:14;52.22;;;23.73;;
59476;SDS011;73078;49.762;6.594;2024-03-07T06:15:42;56.55;;;25.15;;
59476;SDS011;73078;49.762;6.594;2024-03-07T06:18:08;54.72;;;26.10;;
59476;SDS011;73078;49.762;6.594;2024-03-07T06:20:35;56.25;;;23.95;;
59476;SDS011;73078;49.762;6.594;2024-03-07T06:23:02;52.42;;;26.00;;
59476;SDS011;73078;49.762;6.594;2024-03-07T06:25:31;60.53;;;26.75;;
59476;SDS011;73078;49.762;6.594;2024-03-07T06:28:15;51.03;;;25.58;;
59476;SDS011;73078;49.762;6.594;2024-03-07T06:30:42;71.72;;;35.58;;
59476;SDS011;73078;49.762;6.594;2024-03-07T06:33:08;65.70;;;33.58;;
59476;SDS011;73078;49.762;6.594;2024-03-07T06:35:35;60.83;;;25.80;;
59476;SDS011;73078;49.762;6.594;2024-03-07T06:38:07;56.43;;;26.30;;
59476;SDS011;73078;49.762;6.594;2024-03-07T06:40:33;65.75;;;26.90;;
59476;SDS011;73078;49.762;6.594;2024-03-07T06:42:59;59.40;;;25.38;;
59476;SDS011;73078;49.762;6.594;2024-03-07T06:45:25;56.95;;;27.20;;
59476;SDS011;73078;49.762;6.594;2024-03-07T06:48:05;63.30;;;27.80;;
59476;SDS011;73078;49.762;6.594;2024-03-07T06:50:33;55.80;;;27.65;;
59476;SDS011;73078;49.762;6.594;2024-03-07T06:52:58;57.63;;;28.23;;
59476;SDS011;73078;49.762;6.594;2024-03-07T06:55:24;57.88;;;26.40;;
59476;SDS011;73078;49.762;6.594;2024-03-07T06:57:52;54.65;;;26.42;;
59476;SDS011;73078;49.762;6.594;2024-03-07T07:00:18;64.80;;;28.30;;
59476;SDS011;73078;49.762;6.594;2024-03-07T07:02:45;56.22;;;26.08;;
59476;SDS011;73078;49.762;6.594;2024-03-07T07:05:11;57.63;;;26.83;;
59476;SDS011;73078;49.762;6.594;2024-03-07T07:07:38;62.50;;;26.70;;
59476;SDS011;73078;49.762;6.594;2024-03-07T07:10:04;54.30;;;26.30;;
59476;SDS011;73078;49.762;6.594;2024-03-07T07:12:37;48.58;;;25.05;;
59476;SDS011;73078;49.762;6.594;2024-03-07T07:15:03;59.97;;;26.70;;
59476;SDS011;73078;49.762;6.594;2024-03-07T07:17:29;57.30;;;26.85;;
59476;SDS011;73078;49.762;6.594;2024-03-07T07:19:57;52.17;;;24.90;;
59476;SDS011;73078;49.762;6.594;2024-03-07T07:22:24;52.55;;;24.67;;
59476;SDS011;73078;49.762;6.594;2024-03-07T07:24:50;49.83;;;23.65;;
59476;SDS011;73078;49.762;6.594;2024-03-07T07:27:16;57.45;;;27.02;;
59476;SDS011;73078;49.762;6.594;2024-03-07T07:29:43;47.35;;;23.52;;
59476;SDS011;73078;49.762;6.594;2024-03-07T07:32:09;46.10;;;23.08;;
59476;SDS011;73078;49.762;6.594;2024-03-07T07:34:37;52.10;;;25.13;;
59476;SDS011;73078;49.762;6.594;2024-03-07T07:37:03;47.53;;;23.90;;
59476;SDS011;73078;49.762;6.594;2024-03-07T07:39:29;43.35;;;22.00;;
59476;SDS011;73078;49.762;6.594;2024-03-07T07:41:56;44.03;;;22.13;;
59476;SDS011;73078;49.762;6.594;2024-03-07T07:44:22;42.75;;;22.45;;
59476;SDS011;73078;49.762;6.594;2024-03-07T07:46:48;43.28;;;21.70;;
59476;SDS011;73078;49.762;6.594;2024-03-07T07:49:14;39.75;;;20.55;;
59476;SDS011;73078;49.762;6.594;2024-03-07T07:51:44;37.10;;;19.58;;
59476;SDS011;73078;49.762;6.594;2024-03-07T07:54:10;40.65;;;20.83;;
59476;SDS011;73078;49.762;6.594;2024-03-07T07:56:36;40.47;;;20.73;;
59476;SDS011;73078;49.762;6.594;2024-03-07T07:59:02;39.15;;;19.88;;
59476;SDS011;73078;49.762;6.594;2024-03-07T08:01:29;40.00;;;20.67;;
59476;SDS011;73078;49.762;6.594;2024-03-07T08:03:55;39.47;;;21.23;;
59476;SDS011;73078;49.762;6.594;2024-03-07T08:06:23;37.70;;;22.02;;
59476;SDS011;73078;49.762;6.594;2024-03-07T08:08:49;38.65;;;19.42;;
59476;SDS011;73078;49.762;6.594;2024-03-07T08:11:15;37.78;;;20.17;;
59476;SDS011;73078;49.762;6.594;2024-03-07T08:13:41;30.60;;;18.55;;
59476;SDS011;73078;49.762;6.594;2024-03-07T08:16:07;31.92;;;19.45;;
59476;SDS011;73078;49.762;6.594;2024-03-07T08:18:36;31.10;;;16.53;;
59476;SDS011;73078;49.762;6.594;2024-03-07T08:21:03;30.92;;;17.77;;
59476;SDS011;73078;49.762;6.594;2024-03-07T08:23:29;35.45;;;17.65;;
59476;SDS011;73078;49.762;6.594;2024-03-07T08:25:56;31.77;;;18.30;;
59476;SDS011;73078;49.762;6.594;2024-03-07T08:28:23;30.95;;;16.98;;
59476;SDS011;73078;49.762;6.594;2024-03-07T08:30:49;34.88;;;18.17;;
59476;SDS011;73078;49.762;6.594;2024-03-07T08:33:15;35.33;;;18.15;;
59476;SDS011;73078;49.762;6.594;2024-03-07T08:35:41;34.15;;;20.08;;
59476;SDS011;73078;49.762;6.594;2024-03-07T08:38:07;31.15;;;17.05;;
59476;SDS011;73078;49.762;6.594;2024-03-07T08:40:34;37.60;;;19.95;;
59476;SDS011;73078;49.762;6.594;2024-03-07T08:43:01;30.52;;;16.48;;
59476;SDS011;73078;49.762;6.594;2024-03-07T08:45:28;32.63;;;18.00;;
59476;SDS011;73078;49.762;6.594;2024-03-07T08:47:55;30.13;;;16.60;;
59476;SDS011;73078;49.762;6.594;2024-03-07T08:50:22;31.40;;;14.63;;
59476;SDS011;73078;49.762;6.594;2024-03-07T08:52:48;26.95;;;13.93;;
59476;SDS011;73078;49.762;6.594;2024-03-07T08:55:15;31.40;;;17.88;;
59476;SDS011;73078;49.762;6.594;2024-03-07T08:57:42;31.45;;;16.25;;
59476;SDS011;73078;49.762;6.594;2024-03-07T09:00:12;28.63;;;15.35;;
59476;SDS011;73078;49.762;6.594;2024-03-07T09:02:48;30.70;;;16.48;;
59476;SDS011;73078;49.762;6.594;2024-03-07T09:05:18;30.40;;;14.50;;
59476;SDS011;73078;49.762;6.594;2024-03-07T09:07:45;34.13;;;18.05;;
59476;SDS011;73078;49.762;6.594;2024-03-07T09:10:12;30.67;;;17.58;;
59476;SDS011;73078;49.762;6.594;2024-03-07T09:12:39;28.40;;;16.55;;
59476;SDS011;73078;49.762;6.594;2024-03-07T09:15:05;31.27;;;16.35;;
59476;SDS011;73078;49.762;6.594;2024-03-07T09:17:31;29.52;;;16.23;;
59476;SDS011;73078;49.762;6.594;2024-03-07T09:19:57;33.13;;;19.48;;
59476;SDS011;73078;49.762;6.594;2024-03-07T09:22:23;29.17;;;16.48;;
59476;SDS011;73078;49.762;6.594;2024-03-07T09:24:50;24.92;;;14.02;;
59476;SDS011;73078;49.762;6.594;2024-03-07T09:27:16;27.38;;;15.43;;
59476;SDS011;73078;49.762;6.594;2024-03-07T09:29:45;20.20;;;12.40;;
59476;SDS011;73078;49.762;6.594;2024-03-07T09:32:14;22.52;;;14.10;;
59476;SDS011;73078;49.762;6.594;2024-03-07T09:34:40;24.98;;;14.68;;
59476;SDS011;73078;49.762;6.594;2024-03-07T09:37:06;26.45;;;15.32;;
59476;SDS011;73078;49.762;6.594;2024-03-07T09:39:32;22.50;;;11.75;;
59476;SDS011;73078;49.762;6.594;2024-03-07T09:42:00;26.77;;;16.05;;
59476;SDS011;73078;49.762;6.594;2024-03-07T09:44:26;23.70;;;14.13;;
59476;SDS011;73078;49.762;6.594;2024-03-07T09:46:57;22.15;;;13.90;;
59476;SDS011;73078;49.762;6.594;2024-03-07T09:49:24;20.45;;;12.65;;
59476;SDS011;73078;49.762;6.594;2024-03-07T09:51:51;23.63;;;14.38;;
59476;SDS011;73078;49.762;6.594;2024-03-07T09:54:21;23.20;;;13.77;;
59476;SDS011;73078;49.762;6.594;2024-03-07T09:56:49;21.27;;;13.68;;
59476;SDS011;73078;49.762;6.594;2024-03-07T09:59:16;24.33;;;14.35;;
59476;SDS011;73078;49.762;6.594;2024-03-07T10:01:45;24.70;;;14.15;;
59476;SDS011;73078;49.762;6.594;2024-03-07T10:04:13;22.73;;;12.82;;
59476;SDS011;73078;49.762;6.594;2024-03-07T10:06:39;23.33;;;14.48;;
59476;SDS011;73078;49.762;6.594;2024-03-07T10:09:06;27.75;;;14.30;;
59476;SDS011;73078;49.762;6.594;2024-03-07T10:11:33;25.48;;;14.80;;
59476;SDS011;73078;49.762;6.594;2024-03-07T10:13:59;25.27;;;14.70;;
59476;SDS011;73078;49.762;6.594;2024-03-07T10:16:26;24.23;;;14.40;;
59476;SDS011;73078;49.762;6.594;2024-03-07T10:18:51;24.00;;;14.15;;
59476;SDS011;73078;49.762;6.594;2024-03-07T10:21:21;21.67;;;13.02;;
59476;SDS011;73078;49.762;6.594;2024-03-07T10:23:49;24.75;;;15.13;;
59476;SDS011;73078;49.762;6.594;2024-03-07T10:26:16;23.55;;;13.73;;
59476;SDS011;73078;49.762;6.594;2024-03-07T10:28:42;21.60;;;13.80;;
59476;SDS011;73078;49.762;6.594;2024-03-07T10:31:09;20.95;;;12.35;;
59476;SDS011;73078;49.762;6.594;2024-03-07T10:33:37;22.75;;;13.70;;
59476;SDS011;73078;49.762;6.594;2024-03-07T10:36:03;21.90;;;13.90;;
59476;SDS011;73078;49.762;6.594;2024-03-07T10:38:29;20.15;;;13.10;;
59476;SDS011;73078;49.762;6.594;2024-03-07T10:40:56;20.35;;;13.68;;
59476;SDS011;73078;49.762;6.594;2024-03-07T10:43:22;22.05;;;13.82;;
59476;SDS011;73078;49.762;6.594;2024-03-07T10:45:48;22.80;;;14.38;;
59476;SDS011;73078;49.762;6.594;2024-03-07T10:48:18;20.85;;;14.00;;
59476;SDS011;73078;49.762;6.594;2024-03-07T10:58:17;23.15;;;13.35;;
59476;SDS011;73078;49.762;6.594;2024-03-07T11:00:45;22.63;;;12.95;;
59476;SDS011;73078;49.762;6.594;2024-03-07T11:03:13;23.15;;;13.27;;
59476;SDS011;73078;49.762;6.594;2024-03-07T11:05:39;19.65;;;12.52;;
59476;SDS011;73078;49.762;6.594;2024-03-07T11:08:08;19.75;;;12.57;;
59476;SDS011;73078;49.762;6.594;2024-03-07T11:10:37;21.10;;;13.27;;
59476;SDS011;73078;49.762;6.594;2024-03-07T11:13:04;20.30;;;12.23;;
59476;SDS011;73078;49.762;6.594;2024-03-07T11:15:32;18.58;;;11.73;;
59476;SDS011;73078;49.762;6.594;2024-03-07T11:17:58;19.83;;;12.63;;
59476;SDS011;73078;49.762;6.594;2024-03-07T11:20:35;23.42;;;13.15;;
59476;SDS011;73078;49.762;6.594;2024-03-07T11:23:01;20.10;;;13.40;;
59476;SDS011;73078;49.762;6.594;2024-03-07T11:25:47;20.40;;;13.23;;
59476;SDS011;73078;49.762;6.594;2024-03-07T11:28:15;21.25;;;11.52;;
59476;SDS011;73078;49.762;6.594;2024-03-07T11:30:45;20.30;;;12.20;;
59476;SDS011;73078;49.762;6.594;2024-03-07T11:33:11;21.65;;;13.13;;
59476;SDS011;73078;49.762;6.594;2024-03-07T11:35:39;23.10;;;13.45;;
59476;SDS011;73078;49.762;6.594;2024-03-07T11:38:06;22.52;;;12.65;;
59476;SDS011;73078;49.762;6.594;2024-03-07T11:43:02;20.38;;;12.57;;
59476;SDS011;73078;49.762;6.594;2024-03-07T11:45:32;17.90;;;11.35;;
59476;SDS011;73078;49.762;6.594;2024-03-07T11:48:03;18.30;;;11.68;;
59476;SDS011;73078;49.762;6.594;2024-03-07T11:50:34;19.52;;;12.02;;
59476;SDS011;73078;49.762;6.594;2024-03-07T11:53:00;19.50;;;12.23;;
59476;SDS011;73078;49.762;6.594;2024-03-07T11:55:27;17.25;;;11.68;;
59476;SDS011;73078;49.762;6.594;2024-03-07T11:58:06;21.48;;;12.80;;
59476;SDS011;73078;49.762;6.594;2024-03-07T12:00:33;21.38;;;12.27;;
59476;SDS011;73078;49.762;6.594;2024-03-07T12:03:00;17.67;;;10.57;;
59476;SDS011;73078;49.762;6.594;2024-03-07T12:05:25;18.52;;;10.27;;
59476;SDS011;73078;49.762;6.594;2024-03-07T12:07:52;22.63;;;11.65;;
59476;SDS011;73078;49.762;6.594;2024-03-07T12:10:18;20.30;;;11.27;;
59476;SDS011;73078;49.762;6.594;2024-03-07T12:12:49;18.27;;;11.57;;
59476;SDS011;73078;49.762;6.594;2024-03-07T12:15:15;20.33;;;11.48;;
59476;SDS011;73078;49.762;6.594;2024-03-07T12:17:44;20.37;;;11.70;;
59476;SDS011;73078;49.762;6.594;2024-03-07T12:20:11;21.05;;;13.30;;
59476;SDS011;73078;49.762;6.594;2024-03-07T12:22:59;22.02;;;12.57;;
59476;SDS011;73078;49.762;6.594;2024-03-07T12:25:28;22.45;;;12.55;;
59476;SDS011;73078;49.762;6.594;2024-03-07T12:28:10;19.80;;;12.80;;
59476;SDS011;73078;49.762;6.594;2024-03-07T12:33:11;21.63;;;10.25;;
59476;SDS011;73078;49.762;6.594;2024-03-07T12:35:39;20.30;;;11.73;;
59476;SDS011;73078;49.762;6.594;2024-03-07T12:38:07;18.98;;;12.00;;
59476;SDS011;73078;49.762;6.594;2024-03-07T12:40:35;19.67;;;12.45;;
59476;SDS011;73078;49.762;6.594;2024-03-07T12:43:02;20.65;;;11.43;;
59476;SDS011;73078;49.762;6.594;2024-03-07T12:45:42;20.77;;;11.30;;
59476;SDS011;73078;49.762;6.594;2024-03-07T12:48:08;21.67;;;12.38;;
59476;SDS011;73078;49.762;6.594;2024-03-07T12:50:39;21.13;;;12.32;;
59476;SDS011;73078;49.762;6.594;2024-03-07T12:53:05;18.38;;;11.45;;
59476;SDS011;73078;49.762;6.594;2024-03-07T12:55:36;20.15;;;11.68;;
59476;SDS011;73078;49.762;6.594;2024-03-07T13:00:34;22.08;;;12.38;;
59476;SDS011;73078;49.762;6.594;2024-03-07T13:03:00;14.30;;;9.57;;
59476;SDS011;73078;49.762;6.594;2024-03-07T13:05:26;17.15;;;10.68;;
59476;SDS011;73078;49.762;6.594;2024-03-07T13:07:52;18.58;;;11.98;;
59476;SDS011;73078;49.762;6.594;2024-03-07T13:10:18;22.95;;;13.20;;
59476;SDS011;73078;49.762;6.594;2024-03-07T13:12:45;20.30;;;12.25;;
59476;SDS011;73078;49.762;6.594;2024-03-07T13:15:14;19.40;;;12.43;;
59476;SDS011;73078;49.762;6.594;2024-03-07T13:17:40;21.85;;;12.70;;
59476;SDS011;73078;49.762;6.594;2024-03-07T13:20:08;19.08;;;12.73;;
59476;SDS011;73078;49.762;6.594;2024-03-07T13:22:43;20.27;;;12.25;;
59476;SDS011;73078;49.762;6.594;2024-03-07T13:25:22;20.23;;;12.15;;
59476;SDS011;73078;49.762;6.594;2024-03-07T13:27:56;20.75;;;12.10;;
59476;SDS011;73078;49.762;6.594;2024-03-07T13:30:25;20.92;;;12.30;;
59476;SDS011;73078;49.762;6.594;2024-03-07T13:35:20;22.40;;;13.18;;
59476;SDS011;73078;49.762;6.594;2024-03-07T13:37:47;18.85;;;11.45;;
59476;SDS011;73078;49.762;6.594;2024-03-07T13:40:13;17.90;;;10.95;;
59476;SDS011;73078;49.762;6.594;2024-03-07T13:42:49;20.45;;;12.38;;
59476;SDS011;73078;49.762;6.594;2024-03-07T13:45:19;17.42;;;11.98;;
59476;SDS011;73078;49.762;6.594;2024-03-07T13:47:46;21.20;;;12.57;;
59476;SDS011;73078;49.762;6.594;2024-03-07T13:50:17;20.30;;;12.30;;
59476;SDS011;73078;49.762;6.594;2024-03-07T13:52:47;19.10;;;11.50;;
59476;SDS011;73078;49.762;6.594;2024-03-07T14:00:51;22.27;;;12.97;;
59476;SDS011;73078;49.762;6.594;2024-03-07T14:03:27;20.00;;;12.80;;
59476;SDS011;73078;49.762;6.594;2024-03-07T14:16:33;19.50;;;11.95;;
59476;SDS011;73078;49.762;6.594;2024-03-07T14:22:01;20.77;;;12.15;;
59476;SDS011;73078;49.762;6.594;2024-03-07T14:27:15;21.23;;;12.57;;
59476;SDS011;73078;49.762;6.594;2024-03-07T14:32:19;21.10;;;12.70;;
59476;SDS011;73078;49.762;6.594;2024-03-07T14:37:11;20.67;;;12.55;;
59476;SDS011;73078;49.762;6.594;2024-03-07T14:39:43;21.42;;;13.23;;
59476;SDS011;73078;49.762;6.594;2024-03-07T14:42:09;21.45;;;12.77;;
59476;SDS011;73078;49.762;6.594;2024-03-07T14:44:39;22.83;;;14.30;;
59476;SDS011;73078;49.762;6.594;2024-03-07T14:47:07;20.48;;;12.23;;
59476;SDS011;73078;49.762;6.594;2024-03-07T14:49:36;21.52;;;12.10;;
59476;SDS011;73078;49.762;6.594;2024-03-07T14:52:03;15.10;;;9.35;;
59476;SDS011;73078;49.762;6.594;2024-03-07T14:54:29;27.10;;;12.93;;
59476;SDS011;73078;49.762;6.594;2024-03-07T14:56:55;21.50;;;11.23;;
59476;SDS011;73078;49.762;6.594;2024-03-07T14:59:22;22.75;;;12.52;;
59476;SDS011;73078;49.762;6.594;2024-03-07T15:01:48;23.05;;;14.13;;
59476;SDS011;73078;49.762;6.594;2024-03-07T15:04:14;20.98;;;13.38;;
59476;SDS011;73078;49.762;6.594;2024-03-07T15:06:41;24.02;;;13.70;;